sensor_id;sensor_type;location;lat;lon;timestamp;temperature;humidity
3402;DHT22;1714;49.756;8.610;2023-04-21T03:31:36;4.50;99.90
3402;DHT22;1714;49.756;8.610;2023-04-21T03:42:25;4.40;99.90
3402;DHT22;1714;49.756;8.610;2023-04-21T03:53:04;4.20;99.90
3402;DHT22;1714;49.756;8.610;2023-04-21T04:03:40;4.10;99.90
3402;DHT22;1714;49.756;8.610;2023-04-21T04:14:16;4.00;99.90
3402;DHT22;1714;49.756;8.610;2023-04-21T04:24:52;4.00;99.90
3402;DHT22;1714;49.756;8.610;2023-04-21T04:35:28;4.00;99.90
3402;DHT22;1714;49.756;8.610;2023-04-21T04:46:04;4.30;99.90
3402;DHT22;1714;49.756;8.610;2023-04-21T04:56:40;4.60;99.90
3402;DHT22;1714;49.756;8.610;2023-04-21T05:07:15;5.10;99.90
3402;DHT22;1714;49.756;8.610;2023-04-21T05:17:32;5.40;99.90
3402;DHT22;1714;49.756;8.610;2023-04-21T05:27:47;5.80;99.90
3402;DHT22;1714;49.756;8.610;2023-04-21T05:38:03;6.10;99.90
3402;DHT22;1714;49.756;8.610;2023-04-21T05:48:18;6.60;99.90
3402;DHT22;1714;49.756;8.610;2023-04-21T05:58:34;5.70;99.90
3402;DHT22;1714;49.756;8.610;2023-04-21T06:08:49;5.70;92.90
3402;DHT22;1714;49.756;8.610;2023-04-21T06:19:05;6.00;98.20
3402;DHT22;1714;49.756;8.610;2023-04-21T06:29:20;6.30;90.60
3402;DHT22;1714;49.756;8.610;2023-04-21T06:39:36;6.00;98.30
3402;DHT22;1714;49.756;8.610;2023-04-21T06:49:51;5.90;99.90
3402;DHT22;1714;49.756;8.610;2023-04-21T07:00:07;5.90;99.90
3402;DHT22;1714;49.756;8.610;2023-04-21T07:10:22;7.30;93.50
3402;DHT22;1714;49.756;8.610;2023-04-21T07:20:38;8.30;70.90
3402;DHT22;1714;49.756;8.610;2023-04-21T07:30:53;8.20;78.10
3402;DHT22;1714;49.756;8.610;2023-04-21T07:41:10;8.20;82.60
3402;DHT22;1714;49.756;8.610;2023-04-21T07:51:28;7.80;94.60
3402;DHT22;1714;49.756;8.610;2023-04-21T08:01:43;10.70;53.70
3402;DHT22;1714;49.756;8.610;2023-04-21T08:11:58;9.60;72.90
3402;DHT22;1714;49.756;8.610;2023-04-21T08:22:14;10.10;62.60
3402;DHT22;1714;49.756;8.610;2023-04-21T08:32:29;13.90;37.90
3402;DHT22;1714;49.756;8.610;2023-04-21T08:42:47;16.30;28.30
3402;DHT22;1714;49.756;8.610;2023-04-21T08:53:03;25.20;1.00
3402;DHT22;1714;49.756;8.610;2023-04-21T09:03:22;17.90;1.00
3402;DHT22;1714;49.756;8.610;2023-04-21T09:13:42;14.60;1.00
3402;DHT22;1714;49.756;8.610;2023-04-21T09:24:03;14.90;25.90
3402;DHT22;1714;49.756;8.610;2023-04-21T09:34:21;17.70;13.10
3402;DHT22;1714;49.756;8.610;2023-04-21T09:44:38;23.60;1.00
3402;DHT22;1714;49.756;8.610;2023-04-21T09:55:11;25.60;1.00
3402;DHT22;1714;49.756;8.610;2023-04-21T10:05:27;28.10;1.00
3402;DHT22;1714;49.756;8.610;2023-04-21T10:15:43;26.70;1.00
3402;DHT22;1714;49.756;8.610;2023-04-21T10:26:04;22.80;1.00
3402;DHT22;1714;49.756;8.610;2023-04-21T10:36:23;20.30;1.00
3402;DHT22;1714;49.756;8.610;2023-04-21T10:46:47;19.30;1.00
3402;DHT22;1714;49.756;8.610;2023-04-21T10:57:06;18.50;1.00
3402;DHT22;1714;49.756;8.610;2023-04-21T11:07:23;16.80;1.00
3402;DHT22;1714;49.756;8.610;2023-04-21T11:17:38;16.60;1.00
3402;DHT22;1714;49.756;8.610;2023-04-21T11:27:55;15.30;1.00
3402;DHT22;1714;49.756;8.610;2023-04-21T11:38:11;15.60;1.00
3402;DHT22;1714;49.756;8.610;2023-04-21T11:48:29;15.30;1.00
3402;DHT22;1714;49.756;8.610;2023-04-21T11:58:45;15.30;1.00
3402;DHT22;1714;49.756;8.610;2023-04-21T12:09:01;15.50;1.00
3402;DHT22;1714;49.756;8.610;2023-04-21T12:19:25;15.50;1.00
3402;DHT22;1714;49.756;8.610;2023-04-21T12:29:48;15.30;1.00
3402;DHT22;1714;49.756;8.610;2023-04-21T12:40:04;15.80;1.00
3402;DHT22;1714;49.756;8.610;2023-04-21T12:50:21;15.60;1.00
3402;DHT22;1714;49.756;8.610;2023-04-21T13:00:36;15.80;1.00
3402;DHT22;1714;49.756;8.610;2023-04-21T13:10:52;15.90;1.00
3402;DHT22;1714;49.756;8.610;2023-04-21T13:21:09;16.00;1.00
3402;DHT22;1714;49.756;8.610;2023-04-21T13:31:25;15.90;1.00
3402;DHT22;1714;49.756;8.610;2023-04-21T13:41:40;16.10;1.00
3402;DHT22;1714;49.756;8.610;2023-04-21T13:51:56;16.50;1.00
3402;DHT22;1714;49.756;8.610;2023-04-21T14:02:11;16.70;1.00
3402;DHT22;1714;49.756;8.610;2023-04-21T14:12:27;16.70;1.00
3402;DHT22;1714;49.756;8.610;2023-04-21T14:22:42;17.20;1.00
3402;DHT22;1714;49.756;8.610;2023-04-21T14:32:57;17.60;1.00
3402;DHT22;1714;49.756;8.610;2023-04-21T14:43:13;17.80;1.00
3402;DHT22;1714;49.756;8.610;2023-04-21T14:53:28;17.60;1.00
3402;DHT22;1714;49.756;8.610;2023-04-21T15:03:43;17.90;1.00
3402;DHT22;1714;49.756;8.610;2023-04-21T15:13:59;18.20;1.00
3402;DHT22;1714;49.756;8.610;2023-04-21T15:24:14;18.10;1.00
3402;DHT22;1714;49.756;8.610;2023-04-21T15:34:30;18.10;1.00
3402;DHT22;1714;49.756;8.610;2023-04-21T15:44:45;18.30;1.00
3402;DHT22;1714;49.756;8.610;2023-04-21T15:55:01;18.60;1.00
3402;DHT22;1714;49.756;8.610;2023-04-21T16:05:16;18.80;1.00
3402;DHT22;1714;49.756;8.610;2023-04-21T16:15:34;18.70;1.00
3402;DHT22;1714;49.756;8.610;2023-04-21T16:25:49;18.70;1.00
3402;DHT22;1714;49.756;8.610;2023-04-21T16:36:05;18.90;1.00
3402;DHT22;1714;49.756;8.610;2023-04-21T16:46:20;18.90;1.00
3402;DHT22;1714;49.756;8.610;2023-04-21T16:56:36;18.90;1.00
3402;DHT22;1714;49.756;8.610;2023-04-21T17:06:51;18.70;1.00
3402;DHT22;1714;49.756;8.610;2023-04-21T17:17:07;18.50;1.00
3402;DHT22;1714;49.756;8.610;2023-04-21T17:27:24;17.50;1.00
3402;DHT22;1714;49.756;8.610;2023-04-21T17:37:39;16.50;1.00
3402;DHT22;1714;49.756;8.610;2023-04-21T17:47:54;16.10;1.00
3402;DHT22;1714;49.756;8.610;2023-04-21T17:58:10;16.00;1.00
3402;DHT22;1714;49.756;8.610;2023-04-21T18:08:27;15.90;1.00
3402;DHT22;1714;49.756;8.610;2023-04-21T18:18:42;15.80;1.00
3402;DHT22;1714;49.756;8.610;2023-04-21T18:28:57;15.60;1.00
3402;DHT22;1714;49.756;8.610;2023-04-21T18:39:15;15.40;1.00
3402;DHT22;1714;49.756;8.610;2023-04-21T18:49:31;15.20;1.00
3402;DHT22;1714;49.756;8.610;2023-04-21T18:59:46;15.10;1.00
3402;DHT22;1714;49.756;8.610;2023-04-21T19:10:02;14.90;1.00
3402;DHT22;1714;49.756;8.610;2023-04-21T19:20:19;14.80;1.00
3402;DHT22;1714;49.756;8.610;2023-04-21T19:30:34;14.80;1.00
3402;DHT22;1714;49.756;8.610;2023-04-21T19:40:50;14.60;1.00
3402;DHT22;1714;49.756;8.610;2023-04-21T19:51:25;14.00;1.00
3402;DHT22;1714;49.756;8.610;2023-04-21T20:02:02;13.90;1.00
3402;DHT22;1714;49.756;8.610;2023-04-21T20:12:37;13.90;1.00
3402;DHT22;1714;49.756;8.610;2023-04-21T20:23:14;13.70;1.00
3402;DHT22;1714;49.756;8.610;2023-04-21T20:33:50;13.40;1.00
3402;DHT22;1714;49.756;8.610;2023-04-21T20:44:26;13.20;1.00
3402;DHT22;1714;49.756;8.610;2023-04-21T20:55:06;13.00;1.00
3402;DHT22;1714;49.756;8.610;2023-04-21T21:05:41;12.90;1.00
3402;DHT22;1714;49.756;8.610;2023-04-21T21:16:17;12.90;1.00
3402;DHT22;1714;49.756;8.610;2023-04-21T21:26:53;12.90;1.00
